X  Schließen METAR Luftfahrt Wetterdaten     EHRD Rotterdam The Hague Airport
Temperatur
6°C Temperatur
2°C Taupunkt
76% Feuchtigkeit



Wind
13 KM/S
8 MPS
4 M/S
7 KTS



250°
WSW
Aktuelle Wetterlage

Teilweise bewölkt Teilweise bewölkt
Luftdruck 1016.92 (hPa) - 30.03 (inHg)
Sichtweite 6.2 (Meile) - 10 (Km)
Flughafen
Flughafen Code EHRD

Position : Rotterdam The Hague Airport
Entfernung: 16 (Km)

Metar:
EHRD 261355Z AUTO 25007KT 230V290 9999 FEW020 06/02 Q1017 NOSIG

Zeit: 26-01-2021 14:55 CET